Great Bend, KS

1:08 PM CDT on March 29, 2017 (GMT -0500)
Great Bend Municipal | | Change Station

Elev 1886 ft 38.34 °N, 98.86 °W | Updated 12 minutes ago

Light Rain
Light Rain
45 °F
Feels Like 35 °F
N
32
Wind Variable Wind from North
Gusts 38 mph

Today
High -- | Low -- °F
--% Chance of Precip.
Yesterday
High -- | Low -- °F
Precip. -- in
Pressure 29.71 in
Visibility 10.0 miles
Clouds Mostly Cloudy 900 ft
Overcast 1200 ft
Windchill 35 °F
Dew Point 43 °F
Humidity 93%
Rainfall 0.48 in
Snow Depth Not available.
7:24 AM 7:56 PM
Waxing Crescent, 4% visible
METAR KGBD 291756Z AUTO 36028G33KT 10SM -RA BKN009 OVC012 07/06 A2970 RMK AO2 PK WND 36033/1751 SLP061 P0003 60047 T00720061 10083 20072 58006
Pressure 29.71 in
Visibility 10.0 miles
Clouds Mostly Cloudy 900 ft
Overcast 1200 ft
Windchill 35 °F
Dew Point 43 °F
Humidity 93%
Rainfall 0.48 in
Snow Depth Not available.
7:24 AM 7:56 PM
Waxing Crescent, 4% visible
METAR KGBD 291756Z AUTO 36028G33KT 10SM -RA BKN009 OVC012 07/06 A2970 RMK AO2 PK WND 36033/1751 SLP061 P0003 60047 T00720061 10083 20072 58006

Get Severe Weather Alerts

Thanks for signing up!

Be on the lookout for a verification email in your inbox.

You'll start receiving the daily forecast at 8 AM.

×

10-Day Weather Forecast

Almanac

Astronomy

Mar. 29, 2017 Rise Set
Actual Time
Civil Twilight
Nautical Twilight
Astronomical Twilight
Moon
Length of Visible Light
Length of Day
Tomorrow will be .
, % of the Moon is Illuminated

Today's Extremes

State Highs State Lows

Community

WunderPhotos

Upload Photos

1,962,540 photos uploaded!

WunderBlog® & News

Nearby

Air Quality

  Air Quality AQ Index Pollutant
Not available.

Snow Depth

Station Depth Elevation

Earthquake Activity

City Distance Mag. Time & Date
Minimum magnitude displayed is 2.5.

Earthquake Activity

City Distance Mag. Time & Date
Minimum magnitude displayed is 2.5.

Coastal Water Temperatures

Place Temperature

Stations

Nearby Weather Stations

Station Location Temp. Windchill Dew Point Humidity Wind Precip. Elev Updated Type
                   

Watches & Warnings

There are currently no watches in effect.